Albuen, Denmark

11:50 AM CEST on August 01, 2014 (GMT +0200)
ILOLLAND1 Elev 12 ft | 54.85 °N, 11.17 °E | Change Station

Current weather conditions updated 45 seconds ago

Clear
Clear
78.1 °F
Feels Like 79 °F
N
3.0
Wind Variable Wind from SSW
Gusts 10.0 mph

Today is forecast to be nearly the same temperature as yesterday.

Today
High -- | Low -- °F
--% Chance of Precip.
Yesterday
High -- | Low -- °F
Precip. -- in
5:25 AM 9:18 PM
Waxing Crescent, 25% visible
Pressure 29.92 in
Visibility 6.2 miles
Clouds
Heat Index 79 °F
Dew Point 59 °F
Humidity 52%
Rainfall 0.00 in
Snow Depth Not available.
UV 3.9 out of 12
Pollen Not available.
Air Quality Not available.
Flu Activity Not available.
METAR EKAV 010920Z AUTO 18009KT 9999NDV NCD 21/16 Q1013

More Conditions Fewer Conditions

Pressure 29.92 in
Visibility 6.2 miles
Clouds
Heat Index 79 °F
Dew Point 59 °F
Humidity 52%
Rainfall 0.00 in
Snow Depth Not available.
UV 3.9 out of 12
Pollen Not available.
Air Quality Not available.
Flu Activity Not available.
METAR EKAV 010920Z AUTO 18009KT 9999NDV NCD 21/16 Q1013

More Conditions Fewer Conditions

10-Day Weather Forecast

Almanac

Astronomy

Aug. 01, 2014 Rise Set
Actual Time 5:25 AM CEST 9:18 PM CEST
Civil Twilight 4:39 AM CEST 10:04 PM CEST
Nautical Twilight 3:32 AM CEST 11:09 PM CEST
Astronomical Twilight 1:54 AM CEST 12:49 AM CEST
Moon 11:33 AM CEST 10:50 PM CEST
Length of Visible Light 17h 24m
Length of Day
15h 52m
Tomorrow will be 3m 39s shorter.
Waxing Crescent, 25% of the Moon is Illuminated
Today
Waxing Crescent
Aug 3
First Quarter
Aug 10
Full
Aug 17
Last Quarter
Aug 25
New

Yesterday's Extremes

Country Highs Country Lows

Community

WunderPhotos

Upload Photos

1,739,530 photos uploaded!

Nearby

Snow Depth

Not available.

Earthquake Activity

City Distance Mag. Time & Date
No recent earthquake activity has been reported nearby.
Minimum magnitude displayed is 2.5.

Coastal Water Temperatures

Place Temperature
No Stations Reporting

Nearby Weather Stations

Station Location Temp. Heat Index Dew Point Humidity Wind Precip. Elev Updated Type
Nakskov 78.1 °F 79 °F 59 °F 52% SSW  at  3.0 mph 0.00 in / hr 12 ft 11:49 AM CEST Rapid Fire
Taasinge, Svendborg 79.1 °F 80 °F 59 °F 51% SSW  at  11.5 mph 0.00 in / hr 52 ft 11:50 AM CEST Rapid Fire
Lolland, Maribo 76.4 °F 78 °F 58 °F 52% SSW  at  8.1 mph 0.00 in / hr 0 ft 11:50 AM CEST Rapid Fire
Svendborg, Svendborg 81.4 °F 83 °F 65 °F 58% South  at  2.3 mph 0.00 in / hr 100 ft 11:50 AM CEST Rapid Fire

Show More Stations Show Fewer Stations